createdAt,value
2023-03-24T00:01:05.233Z,16.79
2023-03-24T00:02:09.413Z,16.78
2023-03-24T00:03:18.480Z,16.79
2023-03-24T00:04:23.377Z,16.79
2023-03-24T00:05:28.636Z,16.80
2023-03-24T00:06:34.667Z,16.72
2023-03-24T00:07:39.982Z,16.73
2023-03-24T00:08:48.500Z,16.73
2023-03-24T00:09:54.479Z,16.67
2023-03-24T00:11:06.739Z,16.70
2023-03-24T00:12:18.840Z,16.72
2023-03-24T00:13:23.269Z,16.73
2023-03-24T00:14:27.272Z,16.72
2023-03-24T00:15:32.213Z,16.74
2023-03-24T00:16:38.578Z,16.77
2023-03-24T00:17:42.269Z,16.75
2023-03-24T00:18:55.800Z,16.78
2023-03-24T00:20:00.628Z,16.75
2023-03-24T00:21:07.262Z,16.77
2023-03-24T00:22:23.606Z,16.75
2023-03-24T00:23:34.555Z,16.77
2023-03-24T00:24:41.378Z,16.78
2023-03-24T00:25:53.142Z,16.78
2023-03-24T00:27:02.796Z,16.75
2023-03-24T00:28:08.247Z,16.75
2023-03-24T00:29:15.187Z,16.76
2023-03-24T00:30:20.113Z,16.77
2023-03-24T00:31:27.345Z,16.78
2023-03-24T00:32:31.510Z,16.78
2023-03-24T00:33:36.694Z,16.79
2023-03-24T00:34:43.480Z,16.80
2023-03-24T00:35:54.346Z,16.81
2023-03-24T00:36:58.469Z,16.81
2023-03-24T00:38:25.210Z,16.83
2023-03-24T00:39:31.064Z,16.83
2023-03-24T00:40:34.884Z,16.83
2023-03-24T00:41:39.653Z,16.85
2023-03-24T00:42:51.017Z,16.86
2023-03-24T00:44:03.715Z,16.79
2023-03-24T00:45:10.956Z,16.75
2023-03-24T00:46:33.201Z,16.76
2023-03-24T00:47:38.654Z,16.78
2023-03-24T00:48:46.737Z,16.79
2023-03-24T00:49:54.068Z,16.81
2023-03-24T00:51:05.804Z,16.83
2023-03-24T00:52:34.103Z,16.83
2023-03-24T00:53:44.471Z,16.84
2023-03-24T00:54:55.588Z,16.79
2023-03-24T00:56:00.118Z,16.79
2023-03-24T00:57:10.119Z,16.81
2023-03-24T00:58:20.362Z,16.78
2023-03-24T00:59:29.594Z,16.79
2023-03-24T01:00:33.653Z,16.79
2023-03-24T01:01:41.700Z,16.82
2023-03-24T01:02:53.984Z,16.78
2023-03-24T01:03:58.119Z,16.80
2023-03-24T01:05:08.418Z,16.80
2023-03-24T01:06:15.015Z,16.80
2023-03-24T01:07:19.579Z,16.80
2023-03-24T01:08:25.858Z,16.81
2023-03-24T01:09:30.137Z,16.80
2023-03-24T01:10:50.674Z,16.81
2023-03-24T01:11:57.619Z,16.80
2023-03-24T01:13:04.310Z,16.80
2023-03-24T01:14:10.994Z,16.80
2023-03-24T01:15:20.744Z,16.79
2023-03-24T01:16:27.932Z,16.79
2023-03-24T01:17:35.078Z,16.79
2023-03-24T01:18:41.016Z,16.79
2023-03-24T01:19:45.665Z,16.78
2023-03-24T01:20:54.540Z,16.80
2023-03-24T01:21:59.830Z,16.79
2023-03-24T01:23:07.613Z,16.77
2023-03-24T01:24:13.771Z,16.77
2023-03-24T01:25:22.645Z,16.78
2023-03-24T01:26:27.369Z,16.77
2023-03-24T01:27:36.318Z,16.78
2023-03-24T01:28:41.374Z,16.77
2023-03-24T01:29:45.049Z,16.78
2023-03-24T01:30:49.863Z,16.79
2023-03-24T01:31:56.091Z,16.79
2023-03-24T01:33:04.285Z,16.79
2023-03-24T01:34:15.466Z,16.79
2023-03-24T01:35:22.567Z,16.78
2023-03-24T01:36:27.081Z,16.76
2023-03-24T01:37:31.271Z,16.75
2023-03-24T01:38:36.098Z,16.73
2023-03-24T01:39:39.727Z,16.71
2023-03-24T01:40:47.557Z,16.69
2023-03-24T01:41:51.791Z,16.69
2023-03-24T01:42:56.521Z,16.68
2023-03-24T01:44:02.460Z,16.69
2023-03-24T01:45:42.730Z,16.68
2023-03-24T01:46:46.951Z,16.69
2023-03-24T01:47:55.526Z,16.67
2023-03-24T01:49:07.147Z,16.68
2023-03-24T01:50:12.184Z,16.67
2023-03-24T01:51:39.303Z,16.67
2023-03-24T01:52:44.013Z,16.66
2023-03-24T01:54:03.673Z,16.65
2023-03-24T01:55:19.516Z,16.65
2023-03-24T01:56:26.388Z,16.65
2023-03-24T01:57:40.626Z,16.63
2023-03-24T01:58:53.763Z,16.64
2023-03-24T02:00:07.673Z,16.63
2023-03-24T02:01:17.904Z,16.63
2023-03-24T02:02:25.222Z,16.65
2023-03-24T02:03:34.154Z,16.62
2023-03-24T02:04:44.525Z,16.64
2023-03-24T02:05:56.194Z,16.64
2023-03-24T02:07:10.747Z,16.64
2023-03-24T02:08:37.648Z,16.63
2023-03-24T02:09:41.650Z,16.62
2023-03-24T02:10:51.222Z,16.61
2023-03-24T02:11:55.902Z,16.60
2023-03-24T02:12:59.667Z,16.60
2023-03-24T02:14:05.607Z,16.60
2023-03-24T02:15:12.738Z,16.58
2023-03-24T02:16:29.553Z,16.59
2023-03-24T02:18:10.754Z,16.58
2023-03-24T02:20:10.055Z,16.58
2023-03-24T02:21:56.803Z,16.57
2023-03-24T02:23:17.813Z,16.58
2023-03-24T02:24:43.115Z,16.57
2023-03-24T02:26:09.662Z,16.57
2023-03-24T02:27:47.224Z,16.54
2023-03-24T02:29:45.458Z,16.54
2023-03-24T02:31:29.350Z,16.52
2023-03-24T02:33:33.993Z,16.50
2023-03-24T02:35:07.339Z,16.51
2023-03-24T02:36:54.767Z,16.51
2023-03-24T02:38:35.925Z,16.49
2023-03-24T02:40:00.092Z,16.49
2023-03-24T02:41:41.682Z,16.44
2023-03-24T02:43:24.994Z,16.44
2023-03-24T02:44:43.112Z,16.44
2023-03-24T02:46:43.062Z,16.42
2023-03-24T02:48:44.566Z,16.42
2023-03-24T02:50:21.620Z,16.42
2023-03-24T02:51:50.626Z,16.41
2023-03-24T02:53:32.440Z,16.41
2023-03-24T02:54:46.714Z,16.40
2023-03-24T02:56:24.122Z,16.41
2023-03-24T02:57:45.142Z,16.41
2023-03-24T02:59:07.748Z,16.41
2023-03-24T03:00:53.990Z,16.42
2023-03-24T03:02:17.165Z,16.42
2023-03-24T03:03:39.885Z,16.42
2023-03-24T03:05:16.120Z,16.43
2023-03-24T03:06:40.363Z,16.43
2023-03-24T03:07:49.315Z,16.43
2023-03-24T03:09:01.081Z,16.43
2023-03-24T03:10:29.316Z,16.45
2023-03-24T03:11:33.746Z,16.43
2023-03-24T03:12:44.293Z,16.44
2023-03-24T03:14:01.009Z,16.44
2023-03-24T03:15:27.457Z,16.42
2023-03-24T03:16:46.835Z,16.42
2023-03-24T03:18:23.226Z,16.40
2023-03-24T03:19:46.796Z,16.41
2023-03-24T03:20:59.333Z,16.38
2023-03-24T03:22:14.964Z,16.38
2023-03-24T03:23:31.592Z,16.37
2023-03-24T03:24:46.835Z,16.36
2023-03-24T03:26:06.422Z,16.35
2023-03-24T03:27:32.875Z,16.33
2023-03-24T03:28:52.219Z,16.32
2023-03-24T03:30:21.156Z,16.30
2023-03-24T03:31:36.196Z,16.28
2023-03-24T03:32:54.406Z,16.26
2023-03-24T03:34:21.137Z,16.26
2023-03-24T03:35:34.262Z,16.26
2023-03-24T03:37:16.092Z,16.27
2023-03-24T03:39:02.896Z,16.24
2023-03-24T03:40:14.972Z,16.23
2023-03-24T03:41:19.960Z,16.23
2023-03-24T03:42:26.761Z,16.24
2023-03-24T03:43:35.814Z,16.24
2023-03-24T03:44:42.978Z,16.23
2023-03-24T03:45:47.557Z,16.26
2023-03-24T03:46:52.590Z,16.27
2023-03-24T03:47:57.051Z,16.30
2023-03-24T03:49:06.555Z,16.30
2023-03-24T03:50:26.688Z,16.31
2023-03-24T03:51:32.802Z,16.32
2023-03-24T03:52:41.979Z,16.33
2023-03-24T03:53:54.542Z,16.32
2023-03-24T03:55:00.476Z,16.32
2023-03-24T03:56:04.905Z,16.32
2023-03-24T03:57:12.848Z,16.31
2023-03-24T03:58:17.408Z,16.31
2023-03-24T03:59:35.697Z,16.30
2023-03-24T04:00:44.510Z,16.28
2023-03-24T04:01:48.953Z,16.28
2023-03-24T04:03:41.201Z,16.20
2023-03-24T04:05:14.193Z,16.20
2023-03-24T04:06:44.421Z,16.19
2023-03-24T04:08:06.781Z,16.18
2023-03-24T04:09:52.111Z,16.15
2023-03-24T04:11:33.131Z,16.11
2023-03-24T04:12:57.349Z,16.10
2023-03-24T04:14:35.654Z,16.06
2023-03-24T04:16:16.482Z,16.04
2023-03-24T04:17:46.353Z,16.01
2023-03-24T04:19:16.638Z,15.97
2023-03-24T04:20:32.701Z,15.97
2023-03-24T04:21:54.194Z,15.95
2023-03-24T04:23:14.623Z,15.91
2023-03-24T04:24:44.659Z,15.90
2023-03-24T04:26:27.818Z,15.87
2023-03-24T04:27:57.305Z,15.86
2023-03-24T04:29:35.151Z,15.83
2023-03-24T04:30:56.146Z,15.80
2023-03-24T04:32:06.101Z,15.78
2023-03-24T04:33:42.832Z,15.76
2023-03-24T04:35:02.780Z,15.77
2023-03-24T04:36:22.501Z,15.76
2023-03-24T04:37:40.174Z,15.76
2023-03-24T04:38:53.436Z,15.75
2023-03-24T04:40:06.235Z,15.75
2023-03-24T04:41:10.104Z,15.75
2023-03-24T04:42:25.835Z,15.74
2023-03-24T04:43:36.953Z,15.73
2023-03-24T04:44:42.058Z,15.72
2023-03-24T04:45:50.062Z,15.70
2023-03-24T04:46:59.348Z,15.71
2023-03-24T04:48:08.944Z,15.69
2023-03-24T04:49:13.176Z,15.69
2023-03-24T04:50:38.493Z,15.67
2023-03-24T04:51:44.876Z,15.67
2023-03-24T04:52:48.480Z,15.67
2023-03-24T04:53:55.553Z,15.68
2023-03-24T04:55:00.197Z,15.67
2023-03-24T04:56:34.903Z,15.66
2023-03-24T04:57:39.002Z,15.65
2023-03-24T04:58:42.625Z,15.64
2023-03-24T04:59:46.405Z,15.63
2023-03-24T05:00:51.659Z,15.62
2023-03-24T05:01:55.344Z,15.63
2023-03-24T05:02:59.359Z,15.61
2023-03-24T05:04:07.231Z,15.60
2023-03-24T05:05:16.261Z,15.57
2023-03-24T05:06:21.815Z,15.56
2023-03-24T05:07:25.476Z,15.55
2023-03-24T05:08:29.375Z,15.56
2023-03-24T05:09:33.534Z,15.55
2023-03-24T05:10:38.138Z,15.54
2023-03-24T05:11:41.892Z,15.53
2023-03-24T05:12:45.838Z,15.53
2023-03-24T05:13:49.600Z,15.52
2023-03-24T05:14:53.540Z,15.52
2023-03-24T05:15:57.431Z,15.52
2023-03-24T05:17:01.333Z,15.51
2023-03-24T05:18:09.967Z,15.52
2023-03-24T05:19:22.352Z,15.50
2023-03-24T05:20:29.527Z,15.50
2023-03-24T05:21:36.871Z,15.50
2023-03-24T05:22:40.586Z,15.48
2023-03-24T05:23:44.736Z,15.43
2023-03-24T05:24:50.026Z,15.45
2023-03-24T05:25:53.713Z,15.36
2023-03-24T05:26:57.609Z,15.39
2023-03-24T05:28:01.363Z,15.41
2023-03-24T05:29:05.040Z,15.40
2023-03-24T05:30:12.157Z,15.41
2023-03-24T05:31:19.671Z,15.41
2023-03-24T05:32:29.725Z,15.41
2023-03-24T05:33:33.574Z,15.38
2023-03-24T05:34:38.776Z,15.38
2023-03-24T05:35:42.653Z,15.38
2023-03-24T05:36:46.696Z,15.38
2023-03-24T05:37:51.151Z,15.36
2023-03-24T05:38:55.018Z,15.36
2023-03-24T05:39:58.841Z,15.36
2023-03-24T05:41:03.266Z,15.36
2023-03-24T05:42:11.396Z,15.38
2023-03-24T05:43:15.944Z,15.38
2023-03-24T05:44:19.868Z,15.37
2023-03-24T05:45:27.851Z,15.38
2023-03-24T05:46:32.282Z,15.38
2023-03-24T05:47:37.119Z,15.40
2023-03-24T05:48:41.259Z,15.39
2023-03-24T05:49:45.554Z,15.41
2023-03-24T05:50:49.642Z,15.40
2023-03-24T05:51:53.577Z,15.40
2023-03-24T05:52:59.856Z,15.41
2023-03-24T05:54:06.217Z,15.39
2023-03-24T05:55:13.497Z,15.37
2023-03-24T05:56:20.957Z,15.38
2023-03-24T05:57:24.836Z,15.38
2023-03-24T05:58:28.649Z,15.37
2023-03-24T05:59:35.897Z,15.38
2023-03-24T06:00:40.847Z,15.36
2023-03-24T06:01:44.539Z,15.37
2023-03-24T06:02:48.322Z,15.36
2023-03-24T06:03:52.175Z,15.34
2023-03-24T06:04:57.729Z,15.35
2023-03-24T06:06:01.429Z,15.33
2023-03-24T06:07:09.286Z,15.34
2023-03-24T06:08:13.724Z,15.33
2023-03-24T06:09:20.635Z,15.35
2023-03-24T06:10:29.735Z,15.35
2023-03-24T06:11:34.407Z,15.35
2023-03-24T06:12:39.475Z,15.36
2023-03-24T06:13:43.161Z,15.33
2023-03-24T06:14:47.376Z,15.34
2023-03-24T06:15:50.968Z,15.36
2023-03-24T06:17:01.162Z,15.36
2023-03-24T06:18:05.563Z,15.37
2023-03-24T06:19:09.164Z,15.37
2023-03-24T06:20:16.130Z,15.36
2023-03-24T06:21:21.339Z,15.36
2023-03-24T06:22:25.409Z,15.36
2023-03-24T06:23:34.062Z,15.36
2023-03-24T06:24:39.492Z,15.36
2023-03-24T06:25:47.743Z,15.37
2023-03-24T06:26:51.815Z,15.38
2023-03-24T06:27:55.618Z,15.38
2023-03-24T06:28:59.725Z,15.32
2023-03-24T06:30:06.883Z,15.36
2023-03-24T06:31:21.120Z,15.38
2023-03-24T06:32:26.733Z,15.40
2023-03-24T06:33:34.409Z,15.41
2023-03-24T06:34:38.955Z,15.42
2023-03-24T06:35:43.433Z,15.41
2023-03-24T06:36:47.538Z,15.43
2023-03-24T06:37:52.525Z,15.46
2023-03-24T06:38:56.501Z,15.48
2023-03-24T06:40:00.451Z,15.48
2023-03-24T06:41:06.094Z,15.50
2023-03-24T06:42:15.063Z,15.51
2023-03-24T06:43:19.061Z,15.53
2023-03-24T06:44:23.365Z,15.55
2023-03-24T06:45:29.497Z,15.57
2023-03-24T06:46:38.095Z,15.58
2023-03-24T06:47:42.076Z,15.56
2023-03-24T06:48:47.152Z,15.57
2023-03-24T06:49:51.096Z,15.60
2023-03-24T06:50:56.817Z,15.62
2023-03-24T06:52:01.977Z,15.64
2023-03-24T06:53:06.614Z,15.64
2023-03-24T06:54:10.417Z,15.65
2023-03-24T06:55:16.316Z,15.68
2023-03-24T06:56:22.827Z,15.71
2023-03-24T06:57:27.454Z,15.75
2023-03-24T06:58:32.873Z,15.77
2023-03-24T06:59:37.930Z,15.81
2023-03-24T07:00:42.619Z,15.86
2023-03-24T07:01:48.221Z,15.86
2023-03-24T07:02:52.804Z,15.86
2023-03-24T07:03:57.023Z,15.91
2023-03-24T07:05:06.938Z,15.95
2023-03-24T07:06:11.092Z,16.00
2023-03-24T07:08:37.483Z,16.09
2023-03-24T07:09:42.314Z,16.12
2023-03-24T07:10:46.270Z,16.18
2023-03-24T07:11:50.847Z,16.23
2023-03-24T07:12:54.636Z,16.26
2023-03-24T07:13:58.463Z,16.33
2023-03-24T07:15:06.909Z,16.41
2023-03-24T07:16:10.998Z,16.49
2023-03-24T07:17:18.023Z,16.60
2023-03-24T07:18:22.061Z,16.67
2023-03-24T07:19:26.110Z,16.79
2023-03-24T07:20:29.938Z,16.92
2023-03-24T07:21:36.782Z,17.06
2023-03-24T07:22:43.953Z,17.22
2023-03-24T07:23:47.791Z,17.32
2023-03-24T07:24:54.511Z,17.52
2023-03-24T07:25:58.573Z,17.63
2023-03-24T07:27:02.680Z,17.78
2023-03-24T07:28:07.011Z,17.97
2023-03-24T07:29:11.952Z,18.10
2023-03-24T07:30:15.844Z,18.21
2023-03-24T07:31:19.455Z,18.37
2023-03-24T07:32:23.750Z,18.51
2023-03-24T07:33:27.701Z,18.63
2023-03-24T07:34:32.374Z,18.73
2023-03-24T07:35:36.806Z,18.87
2023-03-24T07:36:40.617Z,18.94
2023-03-24T07:37:48.508Z,18.97
2023-03-24T07:38:52.970Z,18.98
2023-03-24T07:39:56.797Z,18.97
2023-03-24T07:41:01.569Z,18.89
2023-03-24T07:42:06.413Z,18.93
2023-03-24T07:43:11.015Z,18.90
2023-03-24T07:44:14.861Z,18.90
2023-03-24T07:45:19.680Z,18.94
2023-03-24T07:46:23.806Z,18.90
2023-03-24T07:47:30.869Z,18.90
2023-03-24T07:48:34.616Z,18.80
2023-03-24T07:49:39.258Z,18.78
2023-03-24T07:50:43.534Z,18.72
2023-03-24T07:51:47.609Z,18.72
2023-03-24T07:52:52.145Z,18.68
2023-03-24T07:53:57.030Z,18.71
2023-03-24T07:55:01.042Z,18.73
2023-03-24T07:56:11.118Z,18.67
2023-03-24T07:57:15.329Z,18.63
2023-03-24T07:58:19.216Z,18.60
2023-03-24T07:59:24.827Z,18.66
2023-03-24T08:00:32.948Z,18.71
2023-03-24T08:01:38.847Z,18.68
2023-03-24T08:02:43.614Z,18.68
2023-03-24T08:03:49.341Z,18.69
2023-03-24T08:04:54.517Z,18.76
2023-03-24T08:05:59.205Z,18.81
2023-03-24T08:07:06.179Z,18.83
2023-03-24T08:08:10.713Z,18.85
2023-03-24T08:09:14.944Z,18.90
2023-03-24T08:10:23.784Z,18.92
2023-03-24T08:11:28.436Z,18.92
2023-03-24T08:12:32.299Z,18.93
2023-03-24T08:13:38.322Z,18.91
2023-03-24T08:14:42.520Z,18.96
2023-03-24T08:15:46.710Z,18.99
2023-03-24T08:16:51.379Z,19.00
2023-03-24T08:17:57.039Z,18.96
2023-03-24T08:19:00.990Z,18.90
2023-03-24T08:20:13.757Z,18.93
2023-03-24T08:21:27.162Z,18.88
2023-03-24T08:22:31.524Z,18.91
2023-03-24T08:23:37.106Z,18.89
2023-03-24T08:24:40.844Z,18.92
2023-03-24T08:25:44.582Z,18.97
2023-03-24T08:26:48.856Z,18.98
2023-03-24T08:27:55.461Z,19.04
2023-03-24T08:28:59.401Z,19.08
2023-03-24T08:30:07.546Z,19.06
2023-03-24T08:31:12.174Z,19.15
2023-03-24T08:32:16.019Z,19.22
2023-03-24T08:33:20.287Z,19.27
2023-03-24T08:34:25.229Z,19.34
2023-03-24T08:35:34.564Z,19.37
2023-03-24T08:36:41.925Z,19.39
2023-03-24T08:37:45.906Z,19.44
2023-03-24T08:38:51.981Z,19.49
2023-03-24T08:39:59.122Z,19.62
2023-03-24T08:41:06.972Z,19.74
2023-03-24T08:42:17.563Z,19.80
2023-03-24T08:43:23.397Z,19.92
2023-03-24T08:44:27.647Z,20.06
2023-03-24T08:45:32.945Z,20.15
2023-03-24T08:46:36.698Z,20.25
2023-03-24T08:47:43.850Z,20.40
2023-03-24T08:48:47.657Z,20.58
2023-03-24T08:49:57.710Z,20.72
2023-03-24T08:51:15.021Z,20.99
2023-03-24T08:52:19.349Z,21.22
2023-03-24T08:53:24.559Z,21.42
2023-03-24T08:54:28.888Z,21.41
2023-03-24T08:55:33.332Z,21.61
2023-03-24T08:56:37.151Z,21.71
2023-03-24T08:57:40.873Z,21.69
2023-03-24T08:58:48.453Z,21.84
2023-03-24T08:59:52.334Z,21.97
2023-03-24T09:00:56.249Z,22.03
2023-03-24T09:02:00.118Z,22.08
2023-03-24T09:03:03.972Z,22.14
2023-03-24T09:04:08.473Z,22.09
2023-03-24T09:05:15.929Z,22.03
2023-03-24T09:06:19.917Z,22.15
2023-03-24T09:07:24.700Z,22.33
2023-03-24T09:08:32.443Z,22.72
2023-03-24T09:09:42.786Z,23.06
2023-03-24T09:10:49.204Z,23.35
2023-03-24T09:11:53.771Z,23.63
2023-03-24T09:12:58.159Z,23.84
2023-03-24T09:14:11.642Z,24.07
2023-03-24T09:15:16.096Z,24.01
2023-03-24T09:16:20.725Z,24.04
2023-03-24T09:17:24.749Z,23.77
2023-03-24T09:18:29.616Z,23.72
2023-03-24T09:19:34.510Z,23.45
2023-03-24T09:20:38.427Z,23.42
2023-03-24T09:21:47.837Z,23.31
2023-03-24T09:22:52.613Z,23.21
2023-03-24T09:23:56.661Z,23.13
2023-03-24T09:25:02.213Z,23.02
2023-03-24T09:26:07.880Z,22.93
2023-03-24T09:27:11.918Z,22.83
2023-03-24T09:28:17.520Z,22.80
2023-03-24T09:29:21.848Z,22.79
2023-03-24T09:30:28.722Z,22.66
2023-03-24T09:31:35.150Z,22.70
2023-03-24T09:32:39.333Z,22.72
2023-03-24T09:33:43.314Z,22.81
2023-03-24T09:34:48.201Z,22.92
2023-03-24T09:35:59.678Z,22.97
2023-03-24T09:37:07.768Z,23.15
2023-03-24T09:38:12.558Z,23.23
2023-03-24T09:39:20.044Z,23.33
2023-03-24T09:40:44.990Z,23.36
2023-03-24T09:41:53.351Z,23.41
2023-03-24T09:44:01.282Z,23.49
2023-03-24T09:45:20.536Z,23.46
2023-03-24T09:46:37.745Z,23.44
2023-03-24T09:47:49.996Z,23.47
2023-03-24T09:49:00.042Z,23.56
2023-03-24T09:50:17.765Z,23.60
2023-03-24T09:51:37.593Z,23.58
2023-03-24T09:52:48.259Z,23.62
2023-03-24T09:54:20.394Z,23.67
2023-03-24T09:55:29.284Z,23.69
2023-03-24T09:56:42.718Z,23.69
2023-03-24T09:57:50.978Z,23.78
2023-03-24T09:59:08.184Z,23.82
2023-03-24T10:00:30.536Z,23.88
2023-03-24T10:01:40.477Z,23.88
2023-03-24T10:02:45.049Z,23.85
2023-03-24T10:03:52.325Z,23.85
2023-03-24T10:04:56.574Z,23.83
2023-03-24T10:06:26.934Z,23.81
2023-03-24T10:07:43.882Z,23.79
2023-03-24T10:09:17.824Z,23.85
2023-03-24T10:10:55.461Z,23.94
2023-03-24T10:12:18.533Z,23.85
2023-03-24T10:13:34.631Z,23.96
2023-03-24T10:14:47.505Z,23.95
2023-03-24T10:16:46.609Z,23.99
2023-03-24T10:18:18.072Z,23.96
2023-03-24T10:19:46.243Z,23.98
2023-03-24T10:21:03.669Z,23.99
2023-03-24T10:22:49.208Z,24.00
2023-03-24T10:24:27.655Z,23.94
2023-03-24T10:25:56.378Z,23.96
2023-03-24T10:27:37.554Z,23.98
2023-03-24T10:29:16.914Z,24.04
2023-03-24T10:30:29.003Z,24.02
2023-03-24T10:31:37.675Z,23.91
2023-03-24T10:32:44.666Z,23.92
2023-03-24T10:33:48.594Z,23.81
2023-03-24T10:35:01.627Z,23.82
2023-03-24T10:36:25.428Z,23.87
2023-03-24T10:37:35.243Z,23.81
2023-03-24T10:38:39.670Z,23.79
2023-03-24T10:39:45.359Z,23.83
2023-03-24T10:40:56.436Z,23.82
2023-03-24T10:42:07.190Z,23.71
2023-03-24T10:43:12.807Z,23.66
2023-03-24T10:44:19.128Z,23.61
2023-03-24T10:45:36.892Z,23.65
2023-03-24T10:46:52.509Z,23.63
2023-03-24T10:48:04.423Z,23.63
2023-03-24T10:49:12.824Z,23.63
2023-03-24T10:50:17.195Z,23.58
2023-03-24T10:51:35.041Z,23.59
2023-03-24T10:52:43.907Z,23.58
2023-03-24T10:54:11.283Z,23.52
2023-03-24T10:55:34.825Z,23.48
2023-03-24T10:56:57.287Z,23.46
2023-03-24T10:58:07.572Z,23.46
2023-03-24T10:59:34.622Z,23.46
2023-03-24T11:00:40.448Z,23.47
2023-03-24T11:01:53.223Z,23.49
2023-03-24T11:03:12.032Z,23.49
2023-03-24T11:04:24.884Z,23.52
2023-03-24T11:05:36.617Z,23.48
2023-03-24T11:07:06.098Z,23.48
2023-03-24T11:08:41.161Z,23.57
2023-03-24T11:10:09.513Z,23.63
2023-03-24T11:11:39.649Z,23.61
2023-03-24T11:13:05.414Z,23.54
2023-03-24T11:14:28.318Z,23.57
2023-03-24T11:15:37.755Z,23.55
2023-03-24T11:16:44.759Z,23.61
2023-03-24T11:18:17.243Z,23.66
2023-03-24T11:19:28.057Z,23.74
2023-03-24T11:20:47.254Z,23.75
2023-03-24T11:22:06.804Z,23.73
2023-03-24T11:23:36.096Z,23.74
2023-03-24T11:24:41.944Z,23.75
2023-03-24T11:26:03.186Z,23.77
2023-03-24T11:27:15.601Z,23.63
2023-03-24T11:28:29.689Z,23.74
2023-03-24T11:29:40.549Z,23.72
2023-03-24T11:30:51.883Z,23.75
2023-03-24T11:32:05.685Z,23.71
2023-03-24T11:33:35.952Z,23.67
2023-03-24T11:34:56.577Z,23.60
2023-03-24T11:36:30.914Z,23.57
2023-03-24T11:37:37.884Z,23.53
2023-03-24T11:38:41.871Z,23.50
2023-03-24T11:40:11.482Z,23.53
2023-03-24T11:41:22.439Z,23.56
2023-03-24T11:42:27.949Z,23.57
2023-03-24T11:43:33.175Z,23.54
2023-03-24T11:44:39.561Z,23.56
2023-03-24T11:45:53.425Z,23.58
2023-03-24T11:47:16.443Z,23.57
2023-03-24T11:49:05.854Z,23.57
2023-03-24T11:50:10.407Z,23.62
2023-03-24T11:51:33.993Z,23.59
2023-03-24T11:52:55.477Z,23.62
2023-03-24T11:54:05.389Z,23.65
2023-03-24T11:55:44.796Z,23.69
2023-03-24T11:57:04.575Z,23.66
2023-03-24T11:58:42.726Z,23.63
2023-03-24T11:59:58.938Z,23.49
2023-03-24T12:01:37.303Z,23.55
2023-03-24T12:03:22.348Z,23.60
2023-03-24T12:05:23.216Z,23.58
2023-03-24T12:07:01.586Z,23.54
2023-03-24T12:09:06.754Z,23.47
2023-03-24T12:10:56.886Z,23.48
2023-03-24T12:12:25.267Z,23.53
2023-03-24T12:13:44.703Z,23.53
2023-03-24T12:15:26.644Z,23.50
2023-03-24T12:17:18.843Z,23.51
2023-03-24T12:18:42.982Z,23.54
2023-03-24T12:20:41.153Z,23.49
2023-03-24T12:22:12.301Z,23.49
2023-03-24T12:23:55.097Z,23.56
2023-03-24T12:25:29.637Z,23.49
2023-03-24T12:26:36.000Z,23.48
2023-03-24T12:27:52.577Z,23.51
2023-03-24T12:29:10.551Z,23.54
2023-03-24T12:31:38.047Z,23.59
2023-03-24T12:33:13.801Z,23.50
2023-03-24T12:34:51.687Z,23.56
2023-03-24T12:36:46.802Z,23.55
2023-03-24T12:38:23.029Z,23.52
2023-03-24T12:39:37.491Z,23.48
2023-03-24T12:41:19.039Z,23.37
2023-03-24T12:42:31.146Z,23.34
2023-03-24T12:43:45.858Z,23.39
2023-03-24T12:45:17.602Z,23.36
2023-03-24T12:46:47.894Z,23.34
2023-03-24T12:48:23.338Z,23.30
2023-03-24T12:49:54.818Z,23.26
2023-03-24T12:52:00.615Z,23.18
2023-03-24T12:54:00.000Z,23.18
2023-03-24T12:55:19.200Z,23.15
2023-03-24T12:56:43.420Z,23.16
2023-03-24T12:58:41.930Z,23.16
2023-03-24T13:00:01.629Z,23.22
2023-03-24T13:01:32.249Z,23.22
2023-03-24T13:02:46.091Z,23.24
2023-03-24T13:04:21.302Z,23.24
2023-03-24T13:05:32.882Z,23.22
2023-03-24T13:07:07.490Z,23.14
2023-03-24T13:08:29.678Z,23.17
2023-03-24T13:10:08.873Z,23.13
2023-03-24T13:11:30.071Z,23.11
2023-03-24T13:12:54.702Z,23.14
2023-03-24T13:14:04.890Z,23.15
2023-03-24T13:15:26.149Z,23.12
2023-03-24T13:16:37.713Z,23.10
2023-03-24T13:18:28.190Z,23.08
2023-03-24T13:19:34.792Z,23.09
2023-03-24T13:20:50.281Z,23.14
2023-03-24T13:21:57.933Z,23.12
2023-03-24T13:23:43.195Z,23.12
2023-03-24T13:24:48.620Z,23.10
2023-03-24T13:26:23.479Z,23.13
2023-03-24T13:27:39.248Z,23.15
2023-03-24T13:29:10.958Z,23.11
2023-03-24T13:30:33.414Z,23.10
2023-03-24T13:32:00.888Z,23.07
2023-03-24T13:33:31.908Z,22.99
2023-03-24T13:35:06.216Z,22.98
2023-03-24T13:36:31.736Z,22.89
2023-03-24T13:37:49.003Z,22.83
2023-03-24T13:39:04.218Z,22.81
2023-03-24T13:40:22.885Z,22.82
2023-03-24T13:41:33.207Z,22.83
2023-03-24T13:42:47.750Z,22.81
2023-03-24T13:44:10.812Z,22.78
2023-03-24T13:45:35.650Z,22.79
2023-03-24T13:46:42.455Z,22.72
2023-03-24T13:47:59.039Z,22.74
2023-03-24T13:49:14.388Z,22.72
2023-03-24T13:50:19.374Z,22.69
2023-03-24T13:51:41.276Z,22.64
2023-03-24T13:52:50.707Z,22.57
2023-03-24T13:54:00.602Z,22.57
2023-03-24T13:55:15.791Z,22.54
2023-03-24T13:57:02.121Z,22.52
2023-03-24T13:58:28.673Z,22.48
2023-03-24T14:00:12.308Z,22.41
2023-03-24T14:01:35.874Z,22.39
2023-03-24T14:02:48.942Z,22.37
2023-03-24T14:04:19.697Z,22.32
2023-03-24T14:05:24.003Z,22.30
2023-03-24T14:07:33.453Z,22.23
2023-03-24T14:09:05.080Z,22.21
2023-03-24T14:10:20.960Z,22.16
2023-03-24T14:11:41.604Z,22.18
2023-03-24T14:13:00.679Z,22.13
2023-03-24T14:14:16.043Z,22.10
2023-03-24T14:15:34.714Z,22.05
2023-03-24T14:17:04.732Z,22.05
2023-03-24T14:18:35.079Z,21.99
2023-03-24T14:33:03.207Z,21.79
2023-03-24T14:34:21.627Z,21.80
2023-03-24T14:35:47.052Z,21.79
2023-03-24T14:37:03.701Z,21.77
2023-03-24T14:38:16.713Z,21.79
2023-03-24T14:39:42.627Z,21.71
2023-03-24T14:40:52.248Z,21.69
2023-03-24T14:41:57.923Z,21.65
2023-03-24T14:43:18.207Z,21.64
2023-03-24T14:44:47.557Z,21.56
2023-03-24T14:46:02.989Z,21.61
2023-03-24T14:47:07.379Z,21.59
2023-03-24T14:48:42.201Z,21.60
2023-03-24T14:49:57.178Z,21.54
2023-03-24T14:51:39.728Z,21.53
2023-03-24T14:52:55.445Z,21.52
2023-03-24T14:54:00.004Z,21.48
2023-03-24T14:55:13.042Z,21.53
2023-03-24T14:56:21.882Z,21.57
2023-03-24T14:57:40.951Z,21.60
2023-03-24T14:58:50.943Z,21.62
2023-03-24T15:00:25.969Z,21.61
2023-03-24T15:01:39.200Z,21.58
2023-03-24T15:02:51.543Z,21.58
2023-03-24T15:04:21.853Z,21.59
2023-03-24T15:05:31.137Z,21.65
2023-03-24T15:06:48.725Z,21.61
2023-03-24T15:08:16.908Z,21.60
2023-03-24T15:09:21.096Z,21.61
2023-03-24T15:10:25.319Z,21.62
2023-03-24T15:11:43.185Z,21.64
2023-03-24T15:12:49.748Z,21.67
2023-03-24T15:13:59.651Z,21.68
2023-03-24T15:15:04.725Z,21.66
2023-03-24T15:16:10.935Z,21.66
2023-03-24T15:17:26.743Z,21.62
2023-03-24T15:18:31.195Z,21.62
2023-03-24T15:19:36.253Z,21.64
2023-03-24T15:20:40.319Z,21.62
2023-03-24T15:22:03.916Z,21.61
2023-03-24T15:23:16.765Z,21.58
2023-03-24T15:24:49.201Z,21.59
2023-03-24T15:25:56.055Z,21.56
2023-03-24T15:27:09.275Z,21.53
2023-03-24T15:28:29.170Z,21.55
2023-03-24T15:29:39.279Z,21.55
2023-03-24T15:30:43.210Z,21.52
2023-03-24T15:31:47.733Z,21.52
2023-03-24T15:32:52.252Z,21.54
2023-03-24T15:34:26.273Z,21.59
2023-03-24T15:35:35.073Z,21.56
2023-03-24T15:36:45.390Z,21.59
2023-03-24T15:37:58.204Z,21.56
2023-03-24T15:39:17.498Z,21.56
2023-03-24T15:40:30.052Z,21.56
2023-03-24T15:41:34.637Z,21.52
2023-03-24T15:42:44.514Z,21.51
2023-03-24T15:43:52.970Z,21.54
2023-03-24T15:45:24.196Z,21.54
2023-03-24T15:46:31.819Z,21.55
2023-03-24T15:47:42.077Z,21.55
2023-03-24T15:48:48.232Z,21.53
2023-03-24T15:49:57.164Z,21.49
2023-03-24T15:51:11.858Z,21.50
2023-03-24T15:52:39.335Z,21.50
2023-03-24T15:53:59.216Z,21.50
2023-03-24T15:55:21.330Z,21.51
2023-03-24T15:56:32.065Z,21.48
2023-03-24T15:57:45.521Z,21.49
2023-03-24T15:59:12.927Z,21.48
2023-03-24T16:00:23.582Z,21.50
2023-03-24T16:01:31.778Z,21.42
2023-03-24T16:02:48.287Z,21.41
2023-03-24T16:03:54.967Z,21.42
2023-03-24T16:05:11.326Z,21.43
2023-03-24T16:06:23.890Z,21.42
2023-03-24T16:07:37.800Z,21.42
2023-03-24T16:08:46.634Z,21.42
2023-03-24T16:09:59.868Z,21.38
2023-03-24T16:11:18.457Z,21.41